createdAt,value
2023-03-14T00:01:23.148Z,98470.13
2023-03-14T00:03:51.957Z,98472.44
2023-03-14T00:06:21.145Z,98474.81
2023-03-14T00:08:49.400Z,98466.91
2023-03-14T00:11:23.238Z,98464.53
2023-03-14T00:13:52.556Z,98461.28
2023-03-14T00:16:21.443Z,98461.38
2023-03-14T00:18:49.981Z,98459.47
2023-03-14T00:21:18.195Z,98445.69
2023-03-14T00:23:46.337Z,98437.59
2023-03-14T00:26:16.941Z,98439.56
2023-03-14T00:30:30.234Z,98451.09
2023-03-14T00:32:58.410Z,98450.22
2023-03-14T00:35:26.745Z,98448.25
2023-03-14T00:37:54.800Z,98441.31
2023-03-14T00:40:23.055Z,98439.13
2023-03-14T00:42:53.556Z,98426.94
2023-03-14T00:45:21.619Z,98426.75
2023-03-14T00:47:51.329Z,98420.66
2023-03-14T00:50:19.641Z,98425.31
2023-03-14T00:52:50.748Z,98426.38
2023-03-14T00:55:18.902Z,98425.22
2023-03-14T00:57:47.561Z,98424.09
2023-03-14T01:00:16.828Z,98428.06
2023-03-14T01:02:45.219Z,98429.91
2023-03-14T01:05:14.689Z,98446.53
2023-03-14T01:07:46.605Z,98416.63
2023-03-14T01:10:14.997Z,98447.75
2023-03-14T01:12:45.639Z,98450.34
2023-03-14T01:15:14.048Z,98444.91
2023-03-14T01:17:42.461Z,98430.66
2023-03-14T01:20:16.386Z,98432.44
2023-03-14T01:22:46.127Z,98422.94
2023-03-14T01:25:16.246Z,98437.97
2023-03-14T01:27:44.772Z,98425.63
2023-03-14T01:30:14.409Z,98423.88
2023-03-14T01:32:48.252Z,98416.75
2023-03-14T01:35:20.535Z,98414.38
2023-03-14T01:37:49.018Z,98419.31
2023-03-14T01:40:22.472Z,98420.06
2023-03-14T01:42:57.204Z,98418.44
2023-03-14T01:46:03.097Z,98406.38
2023-03-14T01:48:38.139Z,98407.34
2023-03-14T01:51:10.841Z,98397.50
2023-03-14T01:53:43.879Z,98402.28
2023-03-14T01:56:15.560Z,98404.47
2023-03-14T01:58:47.711Z,98408.25
2023-03-14T02:01:18.608Z,98394.38
2023-03-14T02:03:52.284Z,98392.38
2023-03-14T02:06:26.739Z,98375.00
2023-03-14T02:08:58.554Z,98374.50
2023-03-14T02:11:32.002Z,98384.50
2023-03-14T02:14:32.586Z,98360.63
2023-03-14T02:17:21.062Z,98349.19
2023-03-14T02:20:10.081Z,98351.47
2023-03-14T02:22:47.652Z,98355.00
2023-03-14T02:25:22.169Z,98343.59
2023-03-14T02:27:52.089Z,98356.13
2023-03-14T02:30:25.499Z,98351.22
2023-03-14T02:32:57.543Z,98343.03
2023-03-14T02:35:30.304Z,98337.31
2023-03-14T02:38:06.027Z,98321.25
2023-03-14T02:40:39.058Z,98318.66
2023-03-14T02:43:09.777Z,98320.38
2023-03-14T02:45:47.497Z,98318.47
2023-03-14T02:48:26.327Z,98328.66
2023-03-14T02:50:57.805Z,98320.69
2023-03-14T02:53:30.122Z,98310.59
2023-03-14T02:56:00.813Z,98319.53
2023-03-14T02:58:32.037Z,98316.84
2023-03-14T03:01:08.779Z,98311.47
2023-03-14T03:03:37.104Z,98306.13
2023-03-14T03:06:08.460Z,98296.41
2023-03-14T03:08:36.798Z,98252.59
2023-03-14T03:11:07.631Z,98289.38
2023-03-14T03:13:38.553Z,98293.75
2023-03-14T03:16:08.426Z,98283.47
2023-03-14T03:18:39.342Z,98284.72
2023-03-14T03:21:09.840Z,98281.31
2023-03-14T03:23:38.163Z,98268.00
2023-03-14T03:26:08.315Z,98256.47
2023-03-14T03:28:40.323Z,98265.41
2023-03-14T03:31:09.824Z,98238.75
2023-03-14T03:33:39.233Z,98236.50
2023-03-14T03:36:09.387Z,98235.34
2023-03-14T03:38:40.782Z,98231.47
2023-03-14T03:41:10.079Z,98245.28
2023-03-14T03:43:38.213Z,98221.97
2023-03-14T03:46:10.538Z,98225.19
2023-03-14T03:48:38.828Z,98226.88
2023-03-14T03:51:08.369Z,98226.25
2023-03-14T03:53:38.397Z,98223.41
2023-03-14T03:56:11.687Z,98231.94
2023-03-14T03:58:41.112Z,98227.00
2023-03-14T04:01:11.749Z,98216.19
2023-03-14T04:03:41.541Z,98230.53
2023-03-14T04:06:12.094Z,98226.81
2023-03-14T04:08:42.412Z,98229.41
2023-03-14T04:11:13.870Z,98225.50
2023-03-14T04:14:00.722Z,98226.25
2023-03-14T04:16:33.356Z,98227.19
2023-03-14T04:19:07.851Z,98227.31
2023-03-14T04:21:41.532Z,98229.13
2023-03-14T04:24:11.892Z,98223.78
2023-03-14T04:26:40.438Z,98217.72
2023-03-14T04:29:12.247Z,98218.94
2023-03-14T04:31:43.937Z,98220.38
2023-03-14T04:34:14.267Z,98224.84
2023-03-14T04:36:48.840Z,98228.25
2023-03-14T04:39:22.067Z,98228.94
2023-03-14T04:41:59.008Z,98233.25
2023-03-14T04:44:27.179Z,98231.38
2023-03-14T04:46:59.279Z,98224.81
2023-03-14T04:49:27.499Z,98222.50
2023-03-14T04:51:55.513Z,98219.03
2023-03-14T04:54:27.180Z,98214.94
2023-03-14T04:56:58.836Z,98200.66
2023-03-14T04:59:30.449Z,98202.38
2023-03-14T05:02:06.158Z,98190.47
2023-03-14T05:04:53.045Z,98192.16
2023-03-14T05:07:43.552Z,98190.19
2023-03-14T05:10:34.296Z,98200.97
2023-03-14T05:13:13.163Z,98204.97
2023-03-14T05:16:07.392Z,98191.09
2023-03-14T05:19:06.242Z,98203.00
2023-03-14T05:21:43.732Z,98189.69
2023-03-14T05:24:14.982Z,98191.13
2023-03-14T05:26:59.544Z,98183.50
2023-03-14T05:31:32.150Z,98186.47
2023-03-14T05:34:26.725Z,98189.03
2023-03-14T05:37:26.500Z,98184.69
2023-03-14T05:40:13.591Z,98189.09
2023-03-14T05:42:50.931Z,98189.09
2023-03-14T05:45:37.637Z,98181.00
2023-03-14T05:48:15.835Z,98194.03
2023-03-14T05:50:57.624Z,98199.25
2023-03-14T05:53:36.898Z,98173.47
2023-03-14T05:56:34.710Z,98184.13
2023-03-14T05:59:29.588Z,98179.69
2023-03-14T06:02:06.425Z,98175.09
2023-03-14T06:04:46.748Z,98183.88
2023-03-14T06:07:15.598Z,98184.34
2023-03-14T06:09:44.090Z,98179.69
2023-03-14T06:12:12.313Z,98183.09
2023-03-14T06:14:44.901Z,98190.47
2023-03-14T06:17:13.451Z,98185.13
2023-03-14T06:19:55.629Z,98192.34
2023-03-14T06:22:24.769Z,98198.00
2023-03-14T06:24:52.883Z,98195.91
2023-03-14T06:27:22.113Z,98198.91
2023-03-14T06:29:54.391Z,98198.97
2023-03-14T06:32:22.703Z,98207.56
2023-03-14T06:34:55.531Z,98194.88
2023-03-14T06:37:23.680Z,98191.25
2023-03-14T06:39:51.982Z,98189.47
2023-03-14T06:42:33.235Z,98196.28
2023-03-14T06:45:01.541Z,98187.28
2023-03-14T06:47:29.831Z,98178.22
2023-03-14T06:49:59.319Z,98183.56
2023-03-14T06:52:29.962Z,98184.50
2023-03-14T06:54:58.466Z,98184.06
2023-03-14T06:57:27.088Z,98185.47
2023-03-14T06:59:55.736Z,98173.00
2023-03-14T07:02:39.888Z,98166.28
2023-03-14T07:05:17.980Z,98174.38
2023-03-14T07:07:46.592Z,98174.28
2023-03-14T07:10:15.062Z,98173.00
2023-03-14T07:12:43.172Z,98175.91
2023-03-14T07:18:08.509Z,98190.22
2023-03-14T07:20:41.162Z,98183.84
2023-03-14T07:23:10.096Z,98189.22
2023-03-14T07:25:42.999Z,98188.13
2023-03-14T07:28:11.259Z,98185.47
2023-03-14T07:30:42.036Z,98188.91
2023-03-14T07:33:19.158Z,98200.84
2023-03-14T07:35:50.336Z,98191.13
2023-03-14T07:38:21.485Z,98207.22
2023-03-14T07:41:17.141Z,98204.66
2023-03-14T07:44:05.519Z,98196.03
2023-03-14T07:46:34.069Z,98201.25
2023-03-14T07:49:02.206Z,98199.97
2023-03-14T07:51:31.819Z,98194.00
2023-03-14T07:53:59.957Z,98191.56
2023-03-14T07:56:31.128Z,98201.59
2023-03-14T07:58:59.392Z,98193.78
2023-03-14T08:01:27.617Z,98200.47
2023-03-14T08:03:56.091Z,98195.28
2023-03-14T08:06:24.559Z,98196.16
2023-03-14T08:08:58.682Z,98198.09
2023-03-14T08:11:26.928Z,98184.31
2023-03-14T08:13:55.068Z,98201.22
2023-03-14T08:16:23.695Z,98209.03
2023-03-14T08:18:51.842Z,98202.59
2023-03-14T08:21:20.306Z,98204.91
2023-03-14T08:23:53.128Z,98201.25
2023-03-14T08:26:23.046Z,98195.75
2023-03-14T08:28:51.344Z,98212.75
2023-03-14T08:31:19.852Z,98200.41
2023-03-14T08:33:48.105Z,98211.69
2023-03-14T08:36:16.535Z,98233.78
2023-03-14T08:38:44.686Z,98222.97
2023-03-14T08:41:13.515Z,98218.75
2023-03-14T08:43:43.072Z,98219.13
2023-03-14T08:46:12.454Z,98224.66
2023-03-14T08:48:40.571Z,98219.78
2023-03-14T08:51:11.883Z,98229.19
2023-03-14T08:53:40.027Z,98232.31
2023-03-14T08:56:11.074Z,98233.75
2023-03-14T08:58:39.642Z,98227.75
2023-03-14T09:01:10.862Z,98227.38
2023-03-14T09:03:39.430Z,98209.09
2023-03-14T09:06:12.261Z,98221.69
2023-03-14T09:08:40.315Z,98213.97
2023-03-14T09:11:10.716Z,98226.63
2023-03-14T09:13:42.304Z,98221.25
2023-03-14T09:16:14.247Z,98215.22
2023-03-14T09:18:42.367Z,98218.97
2023-03-14T09:21:10.622Z,98216.00
2023-03-14T09:23:38.791Z,98218.22
2023-03-14T09:26:09.931Z,98215.59
2023-03-14T09:28:38.247Z,98226.94
2023-03-14T09:31:10.057Z,98218.16
2023-03-14T09:33:40.056Z,98212.16
2023-03-14T09:36:11.609Z,98211.69
2023-03-14T09:38:39.966Z,98208.47
2023-03-14T09:41:17.024Z,98214.84
2023-03-14T09:43:46.941Z,98218.06
2023-03-14T09:46:17.348Z,98217.97
2023-03-14T09:48:47.529Z,98232.91
2023-03-14T09:51:22.844Z,98223.31
2023-03-14T09:53:52.716Z,98235.00
2023-03-14T09:56:23.809Z,98222.69
2023-03-14T09:58:55.887Z,98234.66
2023-03-14T10:01:31.700Z,98220.44
2023-03-14T10:04:07.553Z,98217.25
2023-03-14T10:06:36.789Z,98232.19
2023-03-14T10:09:06.618Z,98209.91
2023-03-14T10:11:35.066Z,98210.88
2023-03-14T10:14:08.375Z,98223.41
2023-03-14T10:16:43.862Z,98227.63
2023-03-14T10:19:16.678Z,98226.06
2023-03-14T10:21:46.621Z,98223.59
2023-03-14T10:24:33.606Z,98226.44
2023-03-14T10:27:04.252Z,98222.13
2023-03-14T10:32:35.598Z,98221.69
2023-03-14T10:35:19.862Z,98219.34
2023-03-14T10:37:53.588Z,98220.91
2023-03-14T10:40:29.676Z,98223.53
2023-03-14T10:42:59.583Z,98224.63
2023-03-14T10:45:35.513Z,98222.22
2023-03-14T10:48:22.026Z,98222.44
2023-03-14T10:50:57.842Z,98226.38
2023-03-14T10:53:27.749Z,98226.38
2023-03-14T10:55:58.824Z,98227.44
2023-03-14T10:58:31.655Z,98235.53
2023-03-14T11:01:11.457Z,98249.09
2023-03-14T11:03:51.588Z,98254.88
2023-03-14T11:06:25.684Z,98250.47
2023-03-14T11:09:00.059Z,98249.28
2023-03-14T11:11:31.855Z,98252.09
2023-03-14T11:14:18.183Z,98262.44
2023-03-14T11:16:55.354Z,98253.59
2023-03-14T11:19:52.021Z,98268.63
2023-03-14T11:22:26.281Z,98278.44
2023-03-14T11:25:09.762Z,98276.22
2023-03-14T11:27:44.795Z,98277.81
2023-03-14T11:30:27.872Z,98277.63
2023-03-14T11:33:04.357Z,98291.72
2023-03-14T11:35:41.042Z,98298.06
2023-03-14T11:38:17.523Z,98301.81
2023-03-14T11:40:50.225Z,98305.97
2023-03-14T11:43:29.327Z,98308.63
2023-03-14T11:46:03.794Z,98320.72
2023-03-14T11:48:43.135Z,98324.88
2023-03-14T11:51:23.276Z,98334.44
2023-03-14T11:54:00.281Z,98347.56
2023-03-14T11:56:35.882Z,98366.84
2023-03-14T11:59:11.558Z,98369.13
2023-03-14T12:01:52.861Z,98387.19
2023-03-14T12:04:31.166Z,98399.69
2023-03-14T12:07:09.918Z,98401.25
2023-03-14T12:09:38.419Z,98429.53
2023-03-14T12:12:07.977Z,98442.50
2023-03-14T12:14:46.509Z,98450.72
2023-03-14T12:17:28.343Z,98477.25
2023-03-14T12:20:07.327Z,98483.53
2023-03-14T12:22:38.212Z,98495.59
2023-03-14T12:25:16.054Z,98519.16
2023-03-14T12:27:49.822Z,98531.72
2023-03-14T12:30:32.175Z,98527.53
2023-03-14T12:33:34.598Z,98541.16
2023-03-14T12:36:49.696Z,98555.38
2023-03-14T12:39:35.212Z,98568.84
2023-03-14T12:42:07.641Z,98559.50
2023-03-14T12:44:48.314Z,98586.31
2023-03-14T12:47:48.380Z,98599.56
2023-03-14T12:50:34.533Z,98611.00
2023-03-14T12:53:38.871Z,98618.34
2023-03-14T12:56:22.110Z,98635.41
2023-03-14T12:59:04.269Z,98627.50
2023-03-14T13:01:35.442Z,98627.03
2023-03-14T13:04:10.417Z,98647.06
2023-03-14T13:06:52.200Z,98641.78
2023-03-14T13:09:52.129Z,98653.72
2023-03-14T13:12:28.943Z,98669.25
2023-03-14T13:15:01.975Z,98678.50
2023-03-14T13:17:36.861Z,98682.25
2023-03-14T13:20:13.972Z,98688.72
2023-03-14T13:22:48.908Z,98689.56
2023-03-14T13:25:17.869Z,98712.31
2023-03-14T13:27:50.252Z,98719.72
2023-03-14T13:30:21.643Z,98733.97
2023-03-14T13:32:52.235Z,98749.00
2023-03-14T13:35:23.233Z,98756.72
2023-03-14T13:38:10.198Z,98776.53
2023-03-14T13:40:39.811Z,98792.69
2023-03-14T13:43:17.606Z,98784.44
2023-03-14T13:45:48.251Z,98788.38
2023-03-14T13:48:17.790Z,98804.09
2023-03-14T13:50:53.589Z,98786.59
2023-03-14T13:53:22.432Z,98801.09
2023-03-14T13:55:51.833Z,98811.91
2023-03-14T13:58:27.126Z,98824.53
2023-03-14T14:01:01.776Z,98819.31
2023-03-14T14:03:32.788Z,98834.81
2023-03-14T14:06:01.312Z,98821.84
2023-03-14T14:08:29.769Z,98830.75
2023-03-14T14:11:03.131Z,98841.06
2023-03-14T14:13:35.120Z,98851.16
2023-03-14T14:16:06.779Z,98853.16
2023-03-14T14:18:37.417Z,98848.78
2023-03-14T14:21:06.362Z,98869.81
2023-03-14T14:23:35.218Z,98874.88
2023-03-14T14:26:08.968Z,98881.97
2023-03-14T14:28:39.518Z,98888.53
2023-03-14T14:31:20.866Z,98887.13
2023-03-14T14:33:57.672Z,98888.84
2023-03-14T14:36:28.745Z,98911.84
2023-03-14T14:39:01.587Z,98913.31
2023-03-14T14:41:35.777Z,98912.19
2023-03-14T14:44:06.847Z,98917.16
2023-03-14T14:46:38.443Z,98936.03
2023-03-14T14:49:11.264Z,98937.09
2023-03-14T14:51:44.018Z,98945.44
2023-03-14T14:54:16.334Z,98961.97
2023-03-14T14:56:50.385Z,98957.06
2023-03-14T14:59:26.231Z,98977.03
2023-03-14T15:01:58.603Z,98991.91
2023-03-14T15:04:28.224Z,98993.72
2023-03-14T15:06:56.376Z,99010.69
2023-03-14T15:09:25.108Z,99001.63
2023-03-14T15:11:53.543Z,99010.06
2023-03-14T15:14:23.074Z,99010.50
2023-03-14T15:16:51.530Z,99013.53
2023-03-14T15:19:25.284Z,99019.56
2023-03-14T15:21:59.518Z,99023.34
2023-03-14T15:24:29.824Z,99031.34
2023-03-14T15:26:58.272Z,99030.66
2023-03-14T15:29:29.477Z,99033.06
2023-03-14T15:33:31.999Z,99036.09
2023-03-14T15:36:02.002Z,99029.44
2023-03-14T15:38:30.221Z,99038.31
2023-03-14T15:40:58.598Z,99037.13
2023-03-14T15:43:26.831Z,99035.63
2023-03-14T15:45:58.221Z,99042.22
2023-03-14T15:48:26.366Z,99047.22
2023-03-14T15:50:57.846Z,99043.50
2023-03-14T15:53:26.247Z,99046.97
2023-03-14T15:55:56.885Z,99049.56
2023-03-14T15:58:25.171Z,99053.63
2023-03-14T16:00:53.391Z,99056.53
2023-03-14T16:06:11.295Z,99061.94
2023-03-14T16:08:43.518Z,99072.03
2023-03-14T16:11:18.784Z,99069.78
2023-03-14T16:13:48.516Z,99078.75
2023-03-14T16:16:16.776Z,99068.28
2023-03-14T16:18:45.273Z,99075.75
2023-03-14T16:21:16.558Z,99074.03
2023-03-14T16:23:46.031Z,99080.66
2023-03-14T16:26:16.578Z,99087.13
2023-03-14T16:28:45.423Z,99104.88
2023-03-14T16:31:18.006Z,99099.84
2023-03-14T16:33:46.624Z,99099.34
2023-03-14T16:36:16.664Z,99102.28
2023-03-14T16:38:47.630Z,99119.63
2023-03-14T16:41:17.920Z,99127.81
2023-03-14T16:43:52.082Z,99124.84
2023-03-14T16:46:25.023Z,99131.53
2023-03-14T16:48:56.351Z,99131.06
2023-03-14T16:51:26.443Z,99144.50
2023-03-14T16:53:54.826Z,99152.69
2023-03-14T16:56:23.795Z,99159.31
2023-03-14T16:58:52.463Z,99161.13
2023-03-14T17:01:21.324Z,99168.75
2023-03-14T17:03:53.384Z,99166.41
2023-03-14T17:06:23.947Z,99164.22
2023-03-14T17:08:54.955Z,99178.97
2023-03-14T17:11:25.561Z,99187.19
2023-03-14T17:13:53.865Z,99194.03
2023-03-14T17:16:23.712Z,99191.47
2023-03-14T17:18:53.100Z,99204.66
2023-03-14T17:21:25.205Z,99224.13
2023-03-14T17:23:55.191Z,99223.25
2023-03-14T17:26:26.351Z,99229.38
2023-03-14T17:28:54.755Z,99233.66
2023-03-14T17:31:24.186Z,99241.50
2023-03-14T17:33:53.290Z,99245.88
2023-03-14T17:36:23.681Z,99257.00
2023-03-14T17:38:54.869Z,99266.66
2023-03-14T17:41:25.429Z,99267.06
2023-03-14T17:43:53.996Z,99271.75
2023-03-14T17:46:22.861Z,99285.44
2023-03-14T17:48:51.711Z,99289.44
2023-03-14T17:51:19.897Z,99301.34
2023-03-14T17:53:48.302Z,99317.44
2023-03-14T17:56:16.454Z,99317.69
2023-03-14T17:58:46.318Z,99323.34
2023-03-14T18:01:15.883Z,99328.28
2023-03-14T18:03:45.900Z,99337.53
2023-03-14T18:06:15.765Z,99345.84
2023-03-14T18:08:44.853Z,99347.94
2023-03-14T18:11:14.110Z,99358.84
2023-03-14T18:13:42.626Z,99356.47
2023-03-14T18:16:14.626Z,99371.75
2023-03-14T18:18:48.795Z,99375.41
2023-03-14T18:21:17.383Z,99384.31
2023-03-14T18:23:46.052Z,99389.84
2023-03-14T18:26:14.372Z,99409.44
2023-03-14T18:28:42.855Z,99416.63
2023-03-14T18:31:16.600Z,99413.44
2023-03-14T18:33:48.116Z,99424.00
2023-03-14T18:36:17.101Z,99419.69
2023-03-14T18:38:46.554Z,99423.06
2023-03-14T18:41:16.841Z,99437.81
2023-03-14T18:43:45.970Z,99441.50
2023-03-14T18:46:15.698Z,99462.22
2023-03-14T18:48:44.114Z,99482.63
2023-03-14T18:51:15.339Z,99486.81
2023-03-14T18:53:43.652Z,99486.41
2023-03-14T18:56:14.101Z,99492.22
2023-03-14T18:58:45.312Z,99507.53
2023-03-14T19:01:17.848Z,99524.47
2023-03-14T19:03:47.365Z,99528.19
2023-03-14T19:06:16.906Z,99508.28
2023-03-14T19:08:45.320Z,99531.06
2023-03-14T19:11:16.017Z,99535.47
2023-03-14T19:13:44.477Z,99538.28
2023-03-14T19:16:14.072Z,99533.16
2023-03-14T19:18:44.105Z,99534.28
2023-03-14T19:21:14.652Z,99547.59
2023-03-14T19:23:48.852Z,99536.66
2023-03-14T19:26:18.855Z,99566.34
2023-03-14T19:28:47.097Z,99577.81
2023-03-14T19:31:15.613Z,99577.81
2023-03-14T19:33:45.189Z,99581.34
2023-03-14T19:36:22.591Z,99587.44
2023-03-14T19:38:54.563Z,99598.88
2023-03-14T19:41:25.162Z,99596.31
2023-03-14T19:43:55.971Z,99605.13
2023-03-14T19:46:25.083Z,99602.50
2023-03-14T19:48:55.286Z,99623.78
2023-03-14T19:51:24.563Z,99627.75
2023-03-14T19:53:53.915Z,99648.25
2023-03-14T19:56:25.854Z,99668.59
2023-03-14T19:58:54.160Z,99673.25
2023-03-14T20:01:24.644Z,99673.56
2023-03-14T20:03:53.110Z,99684.25
2023-03-14T20:06:22.995Z,99681.78
2023-03-14T20:08:51.232Z,99689.81
2023-03-14T20:11:19.555Z,99693.44
2023-03-14T20:13:47.764Z,99708.47
2023-03-14T20:16:16.222Z,99713.84
2023-03-14T20:18:44.537Z,99702.59
2023-03-14T20:21:14.379Z,99732.38
2023-03-14T20:23:44.331Z,99735.91
2023-03-14T20:26:12.915Z,99735.94
2023-03-14T20:28:42.690Z,99742.09
2023-03-14T20:34:34.708Z,99758.81
2023-03-14T20:37:03.484Z,99757.91
2023-03-14T20:39:33.564Z,99763.16
2023-03-14T20:42:06.126Z,99766.69
2023-03-14T20:44:34.372Z,99770.19
2023-03-14T20:47:03.985Z,99764.88
2023-03-14T20:49:33.771Z,99757.88
2023-03-14T20:52:05.421Z,99753.44
2023-03-14T20:54:34.075Z,99754.28
2023-03-14T20:57:02.755Z,99751.66
2023-03-14T20:59:31.154Z,99759.56
2023-03-14T21:02:00.054Z,99761.31
2023-03-14T21:04:28.592Z,99770.91
2023-03-14T21:06:58.718Z,99761.34
2023-03-14T21:09:28.636Z,99767.44
2023-03-14T21:11:57.296Z,99777.97
2023-03-14T21:14:25.557Z,99776.19
2023-03-14T21:16:55.896Z,99795.50
2023-03-14T21:19:30.664Z,99794.59
2023-03-14T21:22:01.576Z,99798.13
2023-03-14T21:24:30.021Z,99810.38
2023-03-14T21:26:59.026Z,99798.16
2023-03-14T21:29:27.671Z,99795.53
2023-03-14T21:31:57.176Z,99793.75
2023-03-14T21:34:26.940Z,99788.47
2023-03-14T21:37:01.280Z,99789.34
2023-03-14T21:39:30.516Z,99787.59
2023-03-14T21:42:03.484Z,99795.44
2023-03-14T21:44:37.016Z,99800.69
2023-03-14T21:47:06.285Z,99811.22
2023-03-14T21:49:38.278Z,99826.09
2023-03-14T21:52:09.620Z,99830.50
2023-03-14T21:54:38.181Z,99841.00
2023-03-14T21:57:07.629Z,99835.78
2023-03-14T21:59:37.270Z,99850.66
2023-03-14T22:02:07.341Z,99855.03
2023-03-14T22:04:36.154Z,99850.66
2023-03-14T22:07:04.464Z,99846.25
2023-03-14T22:09:34.463Z,99850.63
2023-03-14T22:12:02.796Z,99855.88
2023-03-14T22:14:30.986Z,99857.66
2023-03-14T22:17:00.155Z,99859.41
2023-03-14T22:19:31.208Z,99868.19
2023-03-14T22:21:59.822Z,99878.72
2023-03-14T22:24:34.320Z,99889.22
2023-03-14T22:27:03.345Z,99890.94
2023-03-14T22:29:31.515Z,99890.97
2023-03-14T22:31:59.839Z,99894.50
2023-03-14T22:34:31.727Z,99895.38
2023-03-14T22:37:04.290Z,99901.50
2023-03-14T22:39:34.542Z,99907.66
2023-03-14T22:42:03.191Z,99907.66
2023-03-14T22:44:32.980Z,99905.91
2023-03-14T22:47:03.402Z,99912.03
2023-03-14T22:49:32.679Z,99916.38
2023-03-14T22:52:01.061Z,99926.00
2023-03-14T22:54:29.387Z,99930.38
2023-03-14T22:56:59.246Z,99934.75
2023-03-14T22:59:27.392Z,99936.50
2023-03-14T23:01:55.965Z,99943.50
2023-03-14T23:04:24.258Z,99940.81
2023-03-14T23:06:52.507Z,99942.56
2023-03-14T23:09:21.638Z,99942.59
2023-03-14T23:11:49.772Z,99952.22
2023-03-14T23:14:20.523Z,99955.75
2023-03-14T23:16:51.043Z,99960.09
2023-03-14T23:19:25.848Z,99968.03
2023-03-14T23:21:54.184Z,99967.97
2023-03-14T23:24:23.013Z,99968.00
2023-03-14T23:26:51.907Z,99969.72
2023-03-14T23:29:21.527Z,99978.50
2023-03-14T23:31:49.688Z,99978.53
2023-03-14T23:34:18.271Z,99992.56
2023-03-14T23:36:49.227Z,100000.50
2023-03-14T23:39:19.736Z,100003.16
2023-03-14T23:41:48.051Z,100000.56
2023-03-14T23:44:16.301Z,100010.25
2023-03-14T23:46:46.195Z,100008.53
2023-03-14T23:49:14.780Z,100012.94
2023-03-14T23:51:43.529Z,100013.00
2023-03-14T23:54:11.858Z,100024.41
2023-03-14T23:56:41.234Z,100032.31
2023-03-14T23:59:09.863Z,100033.19
